sensor_id;sensor_type;location;lat;lon;timestamp;pressure;altitude;pressure_sealevel;temperature;humidity
8320;BME280;4197;42.130;24.746;2023-10-31T00:00:29;99697.59;;;12.73;100.00
8320;BME280;4197;42.130;24.746;2023-10-31T00:02:57;99692.50;;;12.71;100.00
8320;BME280;4197;42.130;24.746;2023-10-31T00:05:25;99691.72;;;12.71;100.00
8320;BME280;4197;42.130;24.746;2023-10-31T00:07:53;99684.34;;;12.71;100.00
8320;BME280;4197;42.130;24.746;2023-10-31T00:10:21;99687.34;;;12.66;100.00
8320;BME280;4197;42.130;24.746;2023-10-31T00:12:49;99684.16;;;12.61;100.00
8320;BME280;4197;42.130;24.746;2023-10-31T00:15:19;99686.38;;;12.55;100.00
8320;BME280;4197;42.130;24.746;2023-10-31T00:17:47;99685.91;;;12.49;100.00
8320;BME280;4197;42.130;24.746;2023-10-31T00:20:15;99688.22;;;12.47;100.00
8320;BME280;4197;42.130;24.746;2023-10-31T00:22:44;99687.34;;;12.43;100.00
8320;BME280;4197;42.130;24.746;2023-10-31T00:25:12;99673.69;;;12.40;100.00
8320;BME280;4197;42.130;24.746;2023-10-31T00:27:40;99680.06;;;12.47;100.00
8320;BME280;4197;42.130;24.746;2023-10-31T00:30:09;99680.78;;;12.44;100.00
8320;BME280;4197;42.130;24.746;2023-10-31T00:32:38;99675.53;;;12.36;100.00
8320;BME280;4197;42.130;24.746;2023-10-31T00:35:07;99672.69;;;12.28;100.00
8320;BME280;4197;42.130;24.746;2023-10-31T00:37:35;99676.91;;;12.26;100.00
8320;BME280;4197;42.130;24.746;2023-10-31T00:40:04;99669.19;;;12.28;100.00
8320;BME280;4197;42.130;24.746;2023-10-31T00:42:32;99667.19;;;12.25;100.00
8320;BME280;4197;42.130;24.746;2023-10-31T00:45:00;99670.25;;;12.23;100.00
8320;BME280;4197;42.130;24.746;2023-10-31T00:47:28;99669.09;;;12.24;100.00
8320;BME280;4197;42.130;24.746;2023-10-31T00:49:58;99661.38;;;12.26;100.00
8320;BME280;4197;42.130;24.746;2023-10-31T00:52:26;99660.56;;;12.22;100.00
8320;BME280;4197;42.130;24.746;2023-10-31T00:54:54;99657.34;;;12.17;100.00
8320;BME280;4197;42.130;24.746;2023-10-31T00:57:22;99663.47;;;12.14;100.00
8320;BME280;4197;42.130;24.746;2023-10-31T00:59:50;99655.31;;;12.14;100.00
8320;BME280;4197;42.130;24.746;2023-10-31T01:02:18;99654.81;;;12.08;100.00
8320;BME280;4197;42.130;24.746;2023-10-31T01:04:47;99652.47;;;12.07;100.00
8320;BME280;4197;42.130;24.746;2023-10-31T01:07:16;99658.19;;;12.01;100.00
8320;BME280;4197;42.130;24.746;2023-10-31T01:09:44;99658.19;;;12.01;100.00
8320;BME280;4197;42.130;24.746;2023-10-31T01:12:12;99653.97;;;12.04;100.00
8320;BME280;4197;42.130;24.746;2023-10-31T01:14:40;99658.63;;;12.03;100.00
8320;BME280;4197;42.130;24.746;2023-10-31T01:17:08;99662.91;;;12.04;100.00
8320;BME280;4197;42.130;24.746;2023-10-31T01:19:37;99657.47;;;12.04;100.00
8320;BME280;4197;42.130;24.746;2023-10-31T01:22:05;99659.34;;;12.00;100.00
8320;BME280;4197;42.130;24.746;2023-10-31T01:24:35;99662.41;;;11.99;100.00
8320;BME280;4197;42.130;24.746;2023-10-31T01:27:04;99661.19;;;11.96;100.00
8320;BME280;4197;42.130;24.746;2023-10-31T01:29:32;99661.19;;;11.96;100.00
8320;BME280;4197;42.130;24.746;2023-10-31T01:32:00;99651.41;;;11.92;100.00
8320;BME280;4197;42.130;24.746;2023-10-31T01:34:35;99644.81;;;11.93;100.00
8320;BME280;4197;42.130;24.746;2023-10-31T01:37:03;99642.03;;;11.89;100.00
8320;BME280;4197;42.130;24.746;2023-10-31T01:39:31;99658.69;;;11.88;100.00
8320;BME280;4197;42.130;24.746;2023-10-31T01:42:01;99647.63;;;11.80;100.00
8320;BME280;4197;42.130;24.746;2023-10-31T01:44:29;99647.06;;;11.71;100.00
8320;BME280;4197;42.130;24.746;2023-10-31T01:46:57;99647.84;;;11.72;100.00
8320;BME280;4197;42.130;24.746;2023-10-31T01:49:25;99636.13;;;11.68;100.00
8320;BME280;4197;42.130;24.746;2023-10-31T01:51:53;99636.97;;;11.72;100.00
8320;BME280;4197;42.130;24.746;2023-10-31T01:54:22;99633.34;;;11.64;100.00
8320;BME280;4197;42.130;24.746;2023-10-31T01:56:50;99639.47;;;11.61;100.00
8320;BME280;4197;42.130;24.746;2023-10-31T01:59:24;99643.25;;;11.56;100.00
8320;BME280;4197;42.130;24.746;2023-10-31T02:01:52;99636.53;;;11.50;100.00
8320;BME280;4197;42.130;24.746;2023-10-31T02:04:21;99640.38;;;11.49;100.00
8320;BME280;4197;42.130;24.746;2023-10-31T02:06:50;99629.38;;;11.42;100.00
8320;BME280;4197;42.130;24.746;2023-10-31T02:09:18;99632.44;;;11.41;100.00
8320;BME280;4197;42.130;24.746;2023-10-31T02:11:46;99631.94;;;11.35;100.00
8320;BME280;4197;42.130;24.746;2023-10-31T02:14:14;99626.00;;;11.29;100.00
8320;BME280;4197;42.130;24.746;2023-10-31T02:16:43;99626.78;;;11.30;100.00
8320;BME280;4197;42.130;24.746;2023-10-31T02:19:12;99619.59;;;11.22;100.00
8320;BME280;4197;42.130;24.746;2023-10-31T02:21:44;99624.19;;;11.18;100.00
8320;BME280;4197;42.130;24.746;2023-10-31T02:24:12;99626.91;;;11.18;100.00
8320;BME280;4197;42.130;24.746;2023-10-31T02:26:40;99623.41;;;11.17;100.00
8320;BME280;4197;42.130;24.746;2023-10-31T02:29:08;99629.16;;;11.15;100.00
8320;BME280;4197;42.130;24.746;2023-10-31T02:31:36;99628.03;;;11.16;100.00
8320;BME280;4197;42.130;24.746;2023-10-31T02:34:05;99636.78;;;11.26;100.00
8320;BME280;4197;42.130;24.746;2023-10-31T02:36:33;99634.91;;;11.30;100.00
8320;BME280;4197;42.130;24.746;2023-10-31T02:39:03;99638.00;;;11.28;100.00
8320;BME280;4197;42.130;24.746;2023-10-31T02:41:31;99642.09;;;11.22;100.00
8320;BME280;4197;42.130;24.746;2023-10-31T02:43:59;99642.91;;;11.23;100.00
8320;BME280;4197;42.130;24.746;2023-10-31T02:46:27;99631.19;;;11.19;100.00
8320;BME280;4197;42.130;24.746;2023-10-31T02:48:55;99644.22;;;11.13;100.00
8320;BME280;4197;42.130;24.746;2023-10-31T02:51:23;99645.00;;;11.13;100.00
8320;BME280;4197;42.130;24.746;2023-10-31T02:53:52;99638.22;;;11.04;100.00
8320;BME280;4197;42.130;24.746;2023-10-31T02:56:21;99640.41;;;10.98;100.00
8320;BME280;4197;42.130;24.746;2023-10-31T02:58:49;99634.78;;;11.07;100.00
8320;BME280;4197;42.130;24.746;2023-10-31T03:01:17;99632.34;;;11.02;100.00
8320;BME280;4197;42.130;24.746;2023-10-31T03:03:46;99634.09;;;10.94;100.00
8320;BME280;4197;42.130;24.746;2023-10-31T03:06:14;99633.56;;;10.88;100.00
8320;BME280;4197;42.130;24.746;2023-10-31T03:08:43;99637.34;;;10.84;100.00
8320;BME280;4197;42.130;24.746;2023-10-31T03:11:23;99630.59;;;10.93;100.00
8320;BME280;4197;42.130;24.746;2023-10-31T03:13:52;99632.88;;;10.91;100.00
8320;BME280;4197;42.130;24.746;2023-10-31T03:16:21;99634.97;;;10.82;100.00
8320;BME280;4197;42.130;24.746;2023-10-31T03:18:49;99628.78;;;10.82;100.00
8320;BME280;4197;42.130;24.746;2023-10-31T03:21:17;99624.66;;;10.88;100.00
8320;BME280;4197;42.130;24.746;2023-10-31T03:23:48;99628.41;;;10.83;100.00
8320;BME280;4197;42.130;24.746;2023-10-31T03:26:16;99628.06;;;10.85;100.00
8320;BME280;4197;42.130;24.746;2023-10-31T03:28:46;99626.59;;;10.87;100.00
8320;BME280;4197;42.130;24.746;2023-10-31T03:31:14;99629.47;;;10.79;100.00
8320;BME280;4197;42.130;24.746;2023-10-31T03:33:43;99631.31;;;10.75;100.00
8320;BME280;4197;42.130;24.746;2023-10-31T03:36:11;99636.81;;;10.62;100.00
8320;BME280;4197;42.130;24.746;2023-10-31T03:38:39;99634.03;;;10.59;100.00
8320;BME280;4197;42.130;24.746;2023-10-31T03:41:09;99626.50;;;10.52;100.00
8320;BME280;4197;42.130;24.746;2023-10-31T03:43:37;99631.22;;;10.55;100.00
8320;BME280;4197;42.130;24.746;2023-10-31T03:46:06;99629.66;;;10.54;100.00
8320;BME280;4197;42.130;24.746;2023-10-31T03:48:34;99632.59;;;10.49;100.00
8320;BME280;4197;42.130;24.746;2023-10-31T03:51:03;99627.81;;;10.42;100.00
8320;BME280;4197;42.130;24.746;2023-10-31T03:53:31;99635.13;;;10.42;100.00
8320;BME280;4197;42.130;24.746;2023-10-31T03:55:59;99635.81;;;10.39;100.00
8320;BME280;4197;42.130;24.746;2023-10-31T03:58:28;99641.06;;;10.32;100.00
8320;BME280;4197;42.130;24.746;2023-10-31T04:00:56;99638.69;;;10.30;100.00
8320;BME280;4197;42.130;24.746;2023-10-31T04:03:25;99632.81;;;10.28;100.00
8320;BME280;4197;42.130;24.746;2023-10-31T04:05:53;99634.97;;;10.22;100.00
8320;BME280;4197;42.130;24.746;2023-10-31T04:08:22;99637.25;;;10.20;100.00
8320;BME280;4197;42.130;24.746;2023-10-31T04:10:50;99639.06;;;10.16;100.00
8320;BME280;4197;42.130;24.746;2023-10-31T04:13:18;99630.63;;;10.18;100.00
8320;BME280;4197;42.130;24.746;2023-10-31T04:15:46;99636.28;;;10.13;100.00
8320;BME280;4197;42.130;24.746;2023-10-31T04:18:14;99640.47;;;10.10;100.00
8320;BME280;4197;42.130;24.746;2023-10-31T04:20:45;99632.34;;;10.10;100.00
8320;BME280;4197;42.130;24.746;2023-10-31T04:23:13;99636.06;;;10.05;100.00
8320;BME280;4197;42.130;24.746;2023-10-31T04:25:41;99632.94;;;10.03;100.00
8320;BME280;4197;42.130;24.746;2023-10-31T04:28:10;99632.13;;;10.03;100.00
8320;BME280;4197;42.130;24.746;2023-10-31T04:30:40;99630.94;;;10.00;100.00
8320;BME280;4197;42.130;24.746;2023-10-31T04:33:08;99622.34;;;9.98;100.00
8320;BME280;4197;42.130;24.746;2023-10-31T04:35:36;99629.25;;;9.96;100.00
8320;BME280;4197;42.130;24.746;2023-10-31T04:38:05;99630.94;;;10.00;100.00
8320;BME280;4197;42.130;24.746;2023-10-31T04:40:34;99636.69;;;9.99;100.00
8320;BME280;4197;42.130;24.746;2023-10-31T04:43:02;99630.03;;;9.96;100.00
8320;BME280;4197;42.130;24.746;2023-10-31T04:45:30;99617.16;;;9.93;100.00
8320;BME280;4197;42.130;24.746;2023-10-31T04:47:58;99621.59;;;9.86;100.00
8320;BME280;4197;42.130;24.746;2023-10-31T04:50:26;99619.50;;;9.79;100.00
8320;BME280;4197;42.130;24.746;2023-10-31T04:52:54;99618.25;;;9.76;100.00
8320;BME280;4197;42.130;24.746;2023-10-31T04:55:24;99615.31;;;9.81;100.00
8320;BME280;4197;42.130;24.746;2023-10-31T04:57:52;99620.81;;;9.85;100.00
8320;BME280;4197;42.130;24.746;2023-10-31T05:00:20;99616.53;;;9.84;100.00
8320;BME280;4197;42.130;24.746;2023-10-31T05:02:48;99609.00;;;9.77;100.00
8320;BME280;4197;42.130;24.746;2023-10-31T05:05:16;99617.88;;;9.78;100.00
8320;BME280;4197;42.130;24.746;2023-10-31T05:07:46;99612.38;;;9.74;100.00
8320;BME280;4197;42.130;24.746;2023-10-31T05:10:14;99604.50;;;9.69;100.00
8320;BME280;4197;42.130;24.746;2023-10-31T05:12:44;99602.56;;;9.70;100.00
8320;BME280;4197;42.130;24.746;2023-10-31T05:15:12;99612.19;;;9.67;100.00
8320;BME280;4197;42.130;24.746;2023-10-31T05:17:40;99603.72;;;9.69;100.00
8320;BME280;4197;42.130;24.746;2023-10-31T05:20:10;99598.75;;;9.71;100.00
8320;BME280;4197;42.130;24.746;2023-10-31T05:22:40;99587.13;;;9.70;100.00
8320;BME280;4197;42.130;24.746;2023-10-31T05:25:08;99600.41;;;9.75;100.00
8320;BME280;4197;42.130;24.746;2023-10-31T05:27:36;99612.34;;;9.87;100.00
8320;BME280;4197;42.130;24.746;2023-10-31T05:30:16;99610.84;;;9.89;100.00
8320;BME280;4197;42.130;24.746;2023-10-31T05:32:44;99620.41;;;9.99;100.00
8320;BME280;4197;42.130;24.746;2023-10-31T05:35:12;99620.88;;;10.01;100.00
8320;BME280;4197;42.130;24.746;2023-10-31T05:37:41;99624.44;;;10.05;100.00
8320;BME280;4197;42.130;24.746;2023-10-31T05:40:10;99633.81;;;10.08;100.00
8320;BME280;4197;42.130;24.746;2023-10-31T05:42:38;99637.50;;;10.15;100.00
8320;BME280;4197;42.130;24.746;2023-10-31T05:45:08;99644.47;;;10.29;100.00
8320;BME280;4197;42.130;24.746;2023-10-31T05:47:37;99650.13;;;10.23;100.00
8320;BME280;4197;42.130;24.746;2023-10-31T05:50:06;99654.63;;;10.32;100.00
8320;BME280;4197;42.130;24.746;2023-10-31T05:52:35;99651.13;;;10.31;100.00
8320;BME280;4197;42.130;24.746;2023-10-31T05:55:03;99656.28;;;10.36;100.00
8320;BME280;4197;42.130;24.746;2023-10-31T05:57:32;99658.84;;;10.45;100.00
8320;BME280;4197;42.130;24.746;2023-10-31T06:00:00;99656.47;;;10.43;100.00
8320;BME280;4197;42.130;24.746;2023-10-31T06:02:29;99664.63;;;10.59;100.00
8320;BME280;4197;42.130;24.746;2023-10-31T06:04:57;99666.16;;;10.73;100.00
8320;BME280;4197;42.130;24.746;2023-10-31T06:07:29;99664.56;;;10.71;100.00
8320;BME280;4197;42.130;24.746;2023-10-31T06:09:58;99671.72;;;10.80;100.00
8320;BME280;4197;42.130;24.746;2023-10-31T06:12:26;99670.94;;;10.79;100.00
8320;BME280;4197;42.130;24.746;2023-10-31T06:14:54;99670.59;;;10.81;100.00
8320;BME280;4197;42.130;24.746;2023-10-31T06:17:24;99669.03;;;10.80;100.00
8320;BME280;4197;42.130;24.746;2023-10-31T06:19:54;99666.75;;;10.82;100.00
8320;BME280;4197;42.130;24.746;2023-10-31T06:22:23;99659.72;;;10.81;100.00
8320;BME280;4197;42.130;24.746;2023-10-31T06:24:51;99658.16;;;10.80;100.00
8320;BME280;4197;42.130;24.746;2023-10-31T06:27:19;99658.25;;;10.83;100.00
8320;BME280;4197;42.130;24.746;2023-10-31T06:29:47;99663.78;;;10.87;100.00
8320;BME280;4197;42.130;24.746;2023-10-31T06:32:32;99664.38;;;10.96;100.00
8320;BME280;4197;42.130;24.746;2023-10-31T06:35:02;99663.22;;;10.97;100.00
8320;BME280;4197;42.130;24.746;2023-10-31T06:37:30;99663.09;;;11.06;100.00
8320;BME280;4197;42.130;24.746;2023-10-31T06:39:58;99662.00;;;11.10;100.00
8320;BME280;4197;42.130;24.746;2023-10-31T06:42:26;99671.56;;;11.20;100.00
8320;BME280;4197;42.130;24.746;2023-10-31T06:44:54;99663.81;;;11.38;100.00
8320;BME280;4197;42.130;24.746;2023-10-31T06:47:22;99661.66;;;11.47;100.00
8320;BME280;4197;42.130;24.746;2023-10-31T06:49:50;99660.56;;;11.48;100.00
8320;BME280;4197;42.130;24.746;2023-10-31T06:52:19;99674.91;;;11.49;100.00
8320;BME280;4197;42.130;24.746;2023-10-31T06:54:48;99675.06;;;11.56;100.00
8320;BME280;4197;42.130;24.746;2023-10-31T06:57:16;99672.72;;;11.74;100.00
8320;BME280;4197;42.130;24.746;2023-10-31T06:59:44;99669.66;;;11.75;100.00
8320;BME280;4197;42.130;24.746;2023-10-31T07:02:13;99663.69;;;11.86;100.00
8320;BME280;4197;42.130;24.746;2023-10-31T07:04:41;99661.28;;;12.00;100.00
8320;BME280;4197;42.130;24.746;2023-10-31T07:07:09;99657.69;;;12.15;100.00
8320;BME280;4197;42.130;24.746;2023-10-31T07:09:39;99652.44;;;12.26;100.00
8320;BME280;4197;42.130;24.746;2023-10-31T07:12:07;99651.38;;;12.31;100.00
8320;BME280;4197;42.130;24.746;2023-10-31T07:14:35;99649.16;;;12.36;100.00
8320;BME280;4197;42.130;24.746;2023-10-31T07:17:03;99643.28;;;12.34;100.00
8320;BME280;4197;42.130;24.746;2023-10-31T07:19:32;99647.69;;;12.42;100.00
8320;BME280;4197;42.130;24.746;2023-10-31T07:22:00;99651.84;;;12.56;100.00
8320;BME280;4197;42.130;24.746;2023-10-31T07:24:27;99655.81;;;12.62;100.00
8320;BME280;4197;42.130;24.746;2023-10-31T07:26:56;99647.75;;;12.69;100.00
8320;BME280;4197;42.130;24.746;2023-10-31T07:29:25;99642.97;;;12.85;100.00
8320;BME280;4197;42.130;24.746;2023-10-31T07:31:53;99643.75;;;13.09;100.00
8320;BME280;4197;42.130;24.746;2023-10-31T07:34:21;99638.41;;;13.16;100.00
8320;BME280;4197;42.130;24.746;2023-10-31T07:36:49;99634.22;;;13.22;100.00
8320;BME280;4197;42.130;24.746;2023-10-31T07:39:17;99635.94;;;13.30;100.00
8320;BME280;4197;42.130;24.746;2023-10-31T07:41:45;99635.28;;;13.41;100.00
8320;BME280;4197;42.130;24.746;2023-10-31T07:44:14;99630.75;;;13.52;100.00
8320;BME280;4197;42.130;24.746;2023-10-31T07:46:42;99636.75;;;13.61;100.00
8320;BME280;4197;42.130;24.746;2023-10-31T07:49:10;99626.69;;;13.69;100.00
8320;BME280;4197;42.130;24.746;2023-10-31T07:51:38;99613.59;;;13.78;100.00
8320;BME280;4197;42.130;24.746;2023-10-31T07:54:06;99616.38;;;13.85;100.00
8320;BME280;4197;42.130;24.746;2023-10-31T07:56:36;99607.56;;;13.95;100.00
8320;BME280;4197;42.130;24.746;2023-10-31T07:59:04;99613.13;;;14.06;100.00
8320;BME280;4197;42.130;24.746;2023-10-31T08:01:34;99610.91;;;14.19;100.00
8320;BME280;4197;42.130;24.746;2023-10-31T08:04:03;99608.34;;;14.33;100.00
8320;BME280;4197;42.130;24.746;2023-10-31T08:06:31;99589.66;;;14.35;100.00
8320;BME280;4197;42.130;24.746;2023-10-31T08:08:59;99593.63;;;14.41;100.00
8320;BME280;4197;42.130;24.746;2023-10-31T08:11:27;99588.59;;;14.47;100.00
8320;BME280;4197;42.130;24.746;2023-10-31T08:13:55;99586.03;;;14.61;100.00
8320;BME280;4197;42.130;24.746;2023-10-31T08:16:23;99586.22;;;14.86;100.00
8320;BME280;4197;42.130;24.746;2023-10-31T08:18:52;99578.38;;;14.85;100.00
8320;BME280;4197;42.130;24.746;2023-10-31T08:21:20;99568.28;;;14.89;100.00
8320;BME280;4197;42.130;24.746;2023-10-31T08:23:48;99564.47;;;15.01;100.00
8320;BME280;4197;42.130;24.746;2023-10-31T08:26:17;99570.00;;;15.11;100.00
8320;BME280;4197;42.130;24.746;2023-10-31T08:28:46;99565.34;;;15.19;100.00
8320;BME280;4197;42.130;24.746;2023-10-31T08:31:14;99571.66;;;15.30;100.00
8320;BME280;4197;42.130;24.746;2023-10-31T08:33:42;99574.09;;;15.50;100.00
8320;BME280;4197;42.130;24.746;2023-10-31T08:36:11;99570.59;;;15.53;100.00
8320;BME280;4197;42.130;24.746;2023-10-31T08:38:40;99567.13;;;15.63;100.00
8320;BME280;4197;42.130;24.746;2023-10-31T08:41:08;99568.38;;;15.80;100.00
8320;BME280;4197;42.130;24.746;2023-10-31T08:43:36;99575.81;;;15.83;100.00
8320;BME280;4197;42.130;24.746;2023-10-31T08:46:04;99575.06;;;15.97;100.00
8320;BME280;4197;42.130;24.746;2023-10-31T08:48:32;99581.72;;;16.06;100.00
8320;BME280;4197;42.130;24.746;2023-10-31T08:51:01;99579.41;;;16.23;100.00
8320;BME280;4197;42.130;24.746;2023-10-31T08:53:31;99575.13;;;16.25;100.00
8320;BME280;4197;42.130;24.746;2023-10-31T08:55:59;99567.31;;;16.45;100.00
8320;BME280;4197;42.130;24.746;2023-10-31T08:58:27;99561.84;;;16.67;100.00
8320;BME280;4197;42.130;24.746;2023-10-31T09:00:56;99557.94;;;16.71;100.00
8320;BME280;4197;42.130;24.746;2023-10-31T09:03:24;99556.38;;;16.74;100.00
8320;BME280;4197;42.130;24.746;2023-10-31T09:05:52;99545.41;;;16.74;100.00
8320;BME280;4197;42.130;24.746;2023-10-31T09:08:20;99539.94;;;16.74;100.00
8320;BME280;4197;42.130;24.746;2023-10-31T09:10:50;99537.59;;;16.87;100.00
8320;BME280;4197;42.130;24.746;2023-10-31T09:13:19;99521.13;;;17.01;100.00
8320;BME280;4197;42.130;24.746;2023-10-31T09:15:47;99516.03;;;17.10;100.00
8320;BME280;4197;42.130;24.746;2023-10-31T09:18:16;99507.81;;;17.10;100.00
8320;BME280;4197;42.130;24.746;2023-10-31T09:20:45;99506.59;;;17.19;100.00
8320;BME280;4197;42.130;24.746;2023-10-31T09:23:13;99499.13;;;17.26;100.00
8320;BME280;4197;42.130;24.746;2023-10-31T09:25:42;99485.78;;;17.32;100.00
8320;BME280;4197;42.130;24.746;2023-10-31T09:28:11;99488.13;;;17.41;100.00
8320;BME280;4197;42.130;24.746;2023-10-31T09:30:39;99480.22;;;17.50;100.00
8320;BME280;4197;42.130;24.746;2023-10-31T09:33:10;99477.81;;;17.59;100.00
8320;BME280;4197;42.130;24.746;2023-10-31T09:35:38;99463.31;;;17.66;100.00
8320;BME280;4197;42.130;24.746;2023-10-31T09:38:06;99456.16;;;17.82;100.00
8320;BME280;4197;42.130;24.746;2023-10-31T09:40:36;99451.06;;;17.81;100.00
8320;BME280;4197;42.130;24.746;2023-10-31T09:43:04;99455.00;;;17.80;100.00
8320;BME280;4197;42.130;24.746;2023-10-31T09:45:34;99454.94;;;17.91;100.00
8320;BME280;4197;42.130;24.746;2023-10-31T09:48:03;99450.59;;;17.93;100.00
8320;BME280;4197;42.130;24.746;2023-10-31T09:50:32;99446.53;;;18.12;100.00
8320;BME280;4197;42.130;24.746;2023-10-31T09:53:01;99443.75;;;18.16;100.00
8320;BME280;4197;42.130;24.746;2023-10-31T09:55:29;99427.66;;;18.21;100.00
8320;BME280;4197;42.130;24.746;2023-10-31T09:57:58;99434.97;;;18.35;100.00
8320;BME280;4197;42.130;24.746;2023-10-31T10:00:26;99424.69;;;18.43;100.00
8320;BME280;4197;42.130;24.746;2023-10-31T10:02:57;99418.81;;;18.41;95.56
8320;BME280;4197;42.130;24.746;2023-10-31T10:05:26;99415.59;;;18.49;94.31
8320;BME280;4197;42.130;24.746;2023-10-31T10:07:56;99408.56;;;18.45;90.97
8320;BME280;4197;42.130;24.746;2023-10-31T10:10:24;99398.91;;;18.67;86.61
8320;BME280;4197;42.130;24.746;2023-10-31T10:12:52;99395.78;;;18.69;85.77
8320;BME280;4197;42.130;24.746;2023-10-31T10:15:21;99387.06;;;18.78;84.06
8320;BME280;4197;42.130;24.746;2023-10-31T10:17:49;99381.81;;;18.90;82.17
8320;BME280;4197;42.130;24.746;2023-10-31T10:20:20;99382.47;;;18.98;80.64
8320;BME280;4197;42.130;24.746;2023-10-31T10:22:48;99370.59;;;19.08;74.54
8320;BME280;4197;42.130;24.746;2023-10-31T10:25:17;99369.75;;;19.11;72.91
8320;BME280;4197;42.130;24.746;2023-10-31T10:27:46;99363.44;;;19.14;74.38
8320;BME280;4197;42.130;24.746;2023-10-31T10:30:15;99363.59;;;19.31;67.92
8320;BME280;4197;42.130;24.746;2023-10-31T10:32:43;99355.34;;;19.31;67.86
8320;BME280;4197;42.130;24.746;2023-10-31T10:35:11;99355.34;;;19.31;67.77
8320;BME280;4197;42.130;24.746;2023-10-31T10:37:42;99354.78;;;19.43;67.09
8320;BME280;4197;42.130;24.746;2023-10-31T10:40:11;99363.75;;;19.47;67.03
8320;BME280;4197;42.130;24.746;2023-10-31T10:42:44;99359.56;;;19.66;65.96
8320;BME280;4197;42.130;24.746;2023-10-31T10:45:14;99352.00;;;19.70;66.19
8320;BME280;4197;42.130;24.746;2023-10-31T10:47:47;99353.88;;;19.77;65.63
8320;BME280;4197;42.130;24.746;2023-10-31T10:50:17;99342.88;;;19.77;65.85
8320;BME280;4197;42.130;24.746;2023-10-31T10:52:54;99338.16;;;19.77;65.00
8320;BME280;4197;42.130;24.746;2023-10-31T10:55:26;99334.72;;;19.70;64.86
8320;BME280;4197;42.130;24.746;2023-10-31T10:58:00;99340.19;;;19.73;65.80
8320;BME280;4197;42.130;24.746;2023-10-31T11:00:28;99332.84;;;19.90;64.87
8320;BME280;4197;42.130;24.746;2023-10-31T11:02:56;99329.72;;;19.88;64.98
8320;BME280;4197;42.130;24.746;2023-10-31T11:05:25;99328.31;;;20.00;64.76
8320;BME280;4197;42.130;24.746;2023-10-31T11:07:56;99321.94;;;20.07;64.13
8320;BME280;4197;42.130;24.746;2023-10-31T11:10:27;99309.34;;;20.05;63.71
8320;BME280;4197;42.130;24.746;2023-10-31T11:12:55;99303.00;;;20.09;63.86
8320;BME280;4197;42.130;24.746;2023-10-31T11:15:24;99308.50;;;20.09;64.07
8320;BME280;4197;42.130;24.746;2023-10-31T11:17:55;99293.34;;;20.20;64.51
8320;BME280;4197;42.130;24.746;2023-10-31T11:20:24;99299.19;;;20.22;64.24
8320;BME280;4197;42.130;24.746;2023-10-31T11:22:57;99300.50;;;20.38;62.46
8320;BME280;4197;42.130;24.746;2023-10-31T11:25:25;99293.00;;;20.38;62.35
8320;BME280;4197;42.130;24.746;2023-10-31T11:28:11;99287.50;;;20.38;62.70
8320;BME280;4197;42.130;24.746;2023-10-31T11:30:39;99282.06;;;20.35;63.65
8320;BME280;4197;42.130;24.746;2023-10-31T11:33:12;99278.09;;;20.36;63.46
8320;BME280;4197;42.130;24.746;2023-10-31T11:36:03;99273.34;;;20.36;63.89
8320;BME280;4197;42.130;24.746;2023-10-31T11:38:35;99277.16;;;20.42;63.65
8320;BME280;4197;42.130;24.746;2023-10-31T11:41:04;99262.97;;;20.44;62.77
8320;BME280;4197;42.130;24.746;2023-10-31T11:43:49;99257.47;;;20.64;62.76
8320;BME280;4197;42.130;24.746;2023-10-31T11:46:19;99251.63;;;20.62;62.50
8320;BME280;4197;42.130;24.746;2023-10-31T11:48:49;99251.09;;;20.67;62.06
8320;BME280;4197;42.130;24.746;2023-10-31T11:51:18;99249.06;;;20.71;60.55
8320;BME280;4197;42.130;24.746;2023-10-31T11:53:48;99241.31;;;20.82;58.95
8320;BME280;4197;42.130;24.746;2023-10-31T11:56:17;99241.31;;;20.82;58.95
8320;BME280;4197;42.130;24.746;2023-10-31T11:58:55;99231.56;;;20.78;58.82
8320;BME280;4197;42.130;24.746;2023-10-31T12:01:23;99231.25;;;20.92;58.93
8320;BME280;4197;42.130;24.746;2023-10-31T12:03:51;99231.72;;;21.07;58.51
8320;BME280;4197;42.130;24.746;2023-10-31T12:06:20;99223.25;;;21.14;59.52
8320;BME280;4197;42.130;24.746;2023-10-31T12:08:50;99212.56;;;21.16;59.03
8320;BME280;4197;42.130;24.746;2023-10-31T12:11:19;99214.13;;;21.17;59.76
8320;BME280;4197;42.130;24.746;2023-10-31T12:13:53;99202.41;;;21.13;59.58
8320;BME280;4197;42.130;24.746;2023-10-31T12:16:26;99199.31;;;21.11;59.14
8320;BME280;4197;42.130;24.746;2023-10-31T12:18:57;99203.88;;;21.01;58.35
8320;BME280;4197;42.130;24.746;2023-10-31T12:21:36;99202.06;;;20.94;59.57
8320;BME280;4197;42.130;24.746;2023-10-31T12:24:07;99193.63;;;21.02;59.91
8320;BME280;4197;42.130;24.746;2023-10-31T12:26:36;99190.50;;;21.00;59.28
8320;BME280;4197;42.130;24.746;2023-10-31T12:29:11;99179.50;;;21.00;59.22
8320;BME280;4197;42.130;24.746;2023-10-31T12:31:42;99182.75;;;21.11;57.35
8320;BME280;4197;42.130;24.746;2023-10-31T12:34:13;99174.22;;;21.22;57.24
8320;BME280;4197;42.130;24.746;2023-10-31T12:36:41;99166.56;;;21.29;57.50
8320;BME280;4197;42.130;24.746;2023-10-31T12:39:11;99169.22;;;21.33;57.63
8320;BME280;4197;42.130;24.746;2023-10-31T12:41:45;99167.75;;;21.28;57.65
8320;BME280;4197;42.130;24.746;2023-10-31T12:44:23;99166.19;;;21.27;57.71
8320;BME280;4197;42.130;24.746;2023-10-31T12:46:56;99167.66;;;21.48;56.59
8320;BME280;4197;42.130;24.746;2023-10-31T12:49:27;99160.50;;;21.34;55.84
8320;BME280;4197;42.130;24.746;2023-10-31T12:51:57;99159.28;;;21.35;56.78
8320;BME280;4197;42.130;24.746;2023-10-31T12:54:31;99157.31;;;21.36;56.25
8320;BME280;4197;42.130;24.746;2023-10-31T12:57:02;99146.56;;;21.42;56.26
8320;BME280;4197;42.130;24.746;2023-10-31T12:59:33;99153.13;;;21.31;56.23
8320;BME280;4197;42.130;24.746;2023-10-31T13:02:07;99135.63;;;21.38;55.83
8320;BME280;4197;42.130;24.746;2023-10-31T13:04:38;99140.25;;;21.41;56.06
8320;BME280;4197;42.130;24.746;2023-10-31T13:07:07;99140.41;;;21.50;56.30
8320;BME280;4197;42.130;24.746;2023-10-31T13:09:37;99134.56;;;21.48;57.09
8320;BME280;4197;42.130;24.746;2023-10-31T13:12:09;99137.22;;;21.52;56.47